createdAt,value
2022-07-29T00:00:01.430Z,16.84
2022-07-29T00:02:53.866Z,16.78
2022-07-29T00:05:26.881Z,16.75
2022-07-29T00:07:55.937Z,16.73
2022-07-29T00:10:28.884Z,16.71
2022-07-29T00:12:58.060Z,16.68
2022-07-29T00:15:28.729Z,16.65
2022-07-29T00:17:59.937Z,16.62
2022-07-29T00:20:29.023Z,16.60
2022-07-29T00:22:58.560Z,16.60
2022-07-29T00:25:28.776Z,16.57
2022-07-29T00:27:59.973Z,16.52
2022-07-29T00:30:28.965Z,16.48
2022-07-29T00:32:57.806Z,16.45
2022-07-29T00:35:45.234Z,16.43
2022-07-29T00:38:21.321Z,16.41
2022-07-29T00:40:52.555Z,16.39
2022-07-29T00:43:21.806Z,16.31
2022-07-29T00:45:50.886Z,16.30
2022-07-29T00:48:19.908Z,16.31
2022-07-29T00:50:51.271Z,16.30
2022-07-29T00:53:23.706Z,16.30
2022-07-29T00:55:55.912Z,16.30
2022-07-29T00:58:27.867Z,16.31
2022-07-29T01:01:01.265Z,16.33
2022-07-29T01:03:31.400Z,16.35
2022-07-29T01:06:01.042Z,16.34
2022-07-29T01:08:30.163Z,16.32
2022-07-29T01:11:00.454Z,16.32
2022-07-29T01:13:33.602Z,16.28
2022-07-29T01:16:18.861Z,16.25
2022-07-29T01:18:54.804Z,16.22
2022-07-29T01:21:50.864Z,16.19
2022-07-29T01:24:34.801Z,16.14
2022-07-29T01:27:42.479Z,16.10
2022-07-29T01:30:12.385Z,16.06
2022-07-29T01:32:51.240Z,16.05
2022-07-29T01:35:37.221Z,16.06
2022-07-29T01:38:23.248Z,16.07
2022-07-29T01:41:09.029Z,16.06
2022-07-29T01:43:59.104Z,16.06
2022-07-29T01:46:39.476Z,16.04
2022-07-29T01:49:23.253Z,16.03
2022-07-29T01:52:06.898Z,15.98
2022-07-29T01:54:47.036Z,15.94
2022-07-29T01:57:20.865Z,15.91
2022-07-29T01:59:52.256Z,15.89
2022-07-29T02:02:24.603Z,15.88
2022-07-29T02:04:54.675Z,15.87
2022-07-29T02:07:26.250Z,15.88
2022-07-29T02:09:57.089Z,15.88
2022-07-29T02:12:28.368Z,15.87
2022-07-29T02:15:02.113Z,15.82
2022-07-29T02:18:09.347Z,15.79
2022-07-29T02:20:41.179Z,15.71
2022-07-29T02:23:13.973Z,15.67
2022-07-29T02:25:44.573Z,15.66
2022-07-29T02:28:15.487Z,15.64
2022-07-29T02:30:46.900Z,15.63
2022-07-29T02:33:18.393Z,15.59
2022-07-29T02:35:49.051Z,15.57
2022-07-29T02:38:38.401Z,15.52
2022-07-29T02:41:13.404Z,15.50
2022-07-29T02:43:46.150Z,15.49
2022-07-29T02:46:29.003Z,15.50
2022-07-29T02:49:33.348Z,15.48
2022-07-29T02:52:28.433Z,15.44
2022-07-29T02:55:05.266Z,15.40
2022-07-29T02:58:17.148Z,15.41
2022-07-29T03:00:49.033Z,15.43
2022-07-29T03:03:20.118Z,15.46
2022-07-29T03:05:49.111Z,15.51
2022-07-29T03:08:18.355Z,15.54
2022-07-29T03:10:52.663Z,15.52
2022-07-29T03:13:22.538Z,15.51
2022-07-29T03:15:54.480Z,15.50
2022-07-29T03:18:28.555Z,15.51
2022-07-29T03:20:57.994Z,15.48
2022-07-29T03:23:33.113Z,15.46
2022-07-29T03:26:08.424Z,15.45
2022-07-29T03:28:42.309Z,15.45
2022-07-29T03:31:11.639Z,15.48
2022-07-29T03:33:41.925Z,15.50
2022-07-29T03:36:14.383Z,15.53
2022-07-29T03:38:47.164Z,15.53
2022-07-29T03:41:18.308Z,15.54
2022-07-29T03:43:56.844Z,15.54
2022-07-29T03:46:29.892Z,15.51
2022-07-29T03:49:05.684Z,15.49
2022-07-29T03:51:39.047Z,15.48
2022-07-29T03:54:10.318Z,15.49
2022-07-29T03:56:47.566Z,15.52
2022-07-29T03:59:21.141Z,15.56
2022-07-29T04:01:51.278Z,15.61
2022-07-29T04:04:23.229Z,15.63
2022-07-29T04:06:52.346Z,15.63
2022-07-29T04:09:24.123Z,15.59
2022-07-29T04:12:01.705Z,15.60
2022-07-29T04:14:35.134Z,15.61
2022-07-29T04:17:05.959Z,15.62
2022-07-29T04:19:35.093Z,15.63
2022-07-29T04:22:04.239Z,15.67
2022-07-29T04:24:33.376Z,15.73
2022-07-29T04:27:07.569Z,15.80
2022-07-29T04:29:56.136Z,15.84
2022-07-29T04:32:29.436Z,15.89
2022-07-29T04:35:01.258Z,15.95
2022-07-29T04:37:39.763Z,16.01
2022-07-29T04:40:38.814Z,16.09
2022-07-29T04:43:13.186Z,16.21
2022-07-29T04:45:56.186Z,16.31
2022-07-29T04:48:28.929Z,16.40
2022-07-29T04:50:59.998Z,16.47
2022-07-29T04:53:36.711Z,16.53
2022-07-29T04:56:09.001Z,16.58
2022-07-29T04:58:38.561Z,16.61
2022-07-29T05:01:15.533Z,16.62
2022-07-29T05:04:01.615Z,16.64
2022-07-29T05:06:32.471Z,16.65
2022-07-29T05:09:09.465Z,16.71
2022-07-29T05:12:00.574Z,16.83
2022-07-29T05:14:48.688Z,16.96
2022-07-29T05:17:30.489Z,17.09
2022-07-29T05:20:05.478Z,17.25
2022-07-29T05:22:38.051Z,17.40
2022-07-29T05:25:10.267Z,17.55
2022-07-29T05:27:41.688Z,17.73
2022-07-29T05:30:13.731Z,17.91
2022-07-29T05:32:42.856Z,18.11
2022-07-29T05:35:14.027Z,18.30
2022-07-29T05:37:43.335Z,18.48
2022-07-29T05:40:12.959Z,18.74
2022-07-29T05:42:42.234Z,19.02
2022-07-29T05:45:12.136Z,19.35
2022-07-29T05:47:41.105Z,19.68
2022-07-29T05:50:10.528Z,19.93
2022-07-29T05:52:45.376Z,20.22
2022-07-29T05:55:20.228Z,20.55
2022-07-29T05:57:54.155Z,20.92
2022-07-29T06:00:23.767Z,21.23
2022-07-29T06:02:52.830Z,21.33
2022-07-29T06:05:24.404Z,21.38
2022-07-29T06:07:54.294Z,21.46
2022-07-29T06:10:26.157Z,21.72
2022-07-29T06:12:56.191Z,22.06
2022-07-29T06:15:26.343Z,22.37
2022-07-29T06:18:00.618Z,22.56
2022-07-29T06:20:43.386Z,22.65
2022-07-29T06:23:12.480Z,22.74
2022-07-29T06:25:43.671Z,22.74
2022-07-29T06:28:13.174Z,22.88
2022-07-29T06:30:42.239Z,23.00
2022-07-29T06:33:18.094Z,23.12
2022-07-29T06:35:54.972Z,23.21
2022-07-29T06:38:31.337Z,23.28
2022-07-29T06:41:04.391Z,23.30
2022-07-29T06:43:50.095Z,23.18
2022-07-29T06:46:22.233Z,22.94
2022-07-29T06:48:53.437Z,22.66
2022-07-29T06:51:24.361Z,22.53
2022-07-29T06:54:00.607Z,22.66
2022-07-29T06:56:38.496Z,22.88
2022-07-29T06:59:11.123Z,22.95
2022-07-29T07:01:42.123Z,22.95
2022-07-29T07:04:14.914Z,22.97
2022-07-29T07:06:45.167Z,23.03
2022-07-29T07:09:17.465Z,23.13
2022-07-29T07:11:46.797Z,23.20
2022-07-29T07:14:18.961Z,23.18
2022-07-29T07:16:48.735Z,23.09
2022-07-29T07:19:21.659Z,22.94
2022-07-29T07:21:52.152Z,22.86
2022-07-29T07:24:21.764Z,22.78
2022-07-29T07:26:52.223Z,22.69
2022-07-29T07:29:25.669Z,22.65
2022-07-29T07:32:01.102Z,22.62
2022-07-29T07:34:31.281Z,22.60
2022-07-29T07:37:02.389Z,22.58
2022-07-29T07:39:31.331Z,22.53
2022-07-29T07:42:00.389Z,22.46
2022-07-29T07:44:29.381Z,22.46
2022-07-29T07:46:58.790Z,22.40
2022-07-29T07:49:39.044Z,22.46
2022-07-29T07:52:14.243Z,22.65
2022-07-29T07:54:45.938Z,22.86
2022-07-29T07:57:16.354Z,22.97
2022-07-29T07:59:47.926Z,23.10
2022-07-29T08:02:17.272Z,23.34
2022-07-29T08:04:49.478Z,23.51
2022-07-29T08:07:18.629Z,23.51
2022-07-29T08:09:49.832Z,23.48
2022-07-29T08:12:19.185Z,23.46
2022-07-29T08:14:48.730Z,23.58
2022-07-29T08:17:17.887Z,23.72
2022-07-29T08:19:49.099Z,23.85
2022-07-29T08:22:18.552Z,23.96
2022-07-29T08:24:56.418Z,23.96
2022-07-29T08:27:45.510Z,24.01
2022-07-29T08:30:17.176Z,24.07
2022-07-29T08:32:54.269Z,24.15
2022-07-29T08:35:25.643Z,24.21
2022-07-29T08:37:55.876Z,24.31
2022-07-29T08:40:32.319Z,24.39
2022-07-29T08:43:14.930Z,24.51
2022-07-29T08:45:53.646Z,24.57
2022-07-29T08:48:25.947Z,24.56
2022-07-29T08:51:02.977Z,24.62
2022-07-29T08:53:50.338Z,24.67
2022-07-29T08:56:42.998Z,24.70
2022-07-29T08:59:16.696Z,24.70
2022-07-29T09:02:06.016Z,24.54
2022-07-29T09:04:46.445Z,24.48
2022-07-29T09:07:34.752Z,24.61
2022-07-29T09:10:14.733Z,24.81
2022-07-29T09:12:56.488Z,24.88
2022-07-29T09:15:28.993Z,24.97
2022-07-29T09:18:00.422Z,25.12
2022-07-29T09:20:57.321Z,25.39
2022-07-29T09:23:26.934Z,25.57
2022-07-29T09:26:07.313Z,25.68
2022-07-29T09:28:47.827Z,25.88
2022-07-29T09:31:47.999Z,25.94
2022-07-29T09:34:37.883Z,25.86
2022-07-29T09:37:13.965Z,25.80
2022-07-29T09:39:50.209Z,25.73
2022-07-29T09:42:31.053Z,25.66
2022-07-29T09:45:22.775Z,25.68
2022-07-29T09:48:04.617Z,25.71
2022-07-29T09:50:58.180Z,25.70
2022-07-29T09:53:42.182Z,25.67
2022-07-29T09:56:48.607Z,25.70
2022-07-29T09:59:50.191Z,25.68
2022-07-29T10:02:25.578Z,25.69
2022-07-29T10:05:04.537Z,25.73
2022-07-29T10:08:00.026Z,25.75
2022-07-29T10:10:58.387Z,25.75
2022-07-29T10:13:29.247Z,25.67
2022-07-29T10:15:58.754Z,25.58
2022-07-29T10:18:28.349Z,25.57
2022-07-29T10:21:04.209Z,25.62
2022-07-29T10:23:46.727Z,25.65
2022-07-29T10:26:20.751Z,25.59
2022-07-29T10:28:55.248Z,25.53
2022-07-29T10:32:03.237Z,25.56
2022-07-29T10:35:07.259Z,25.72
2022-07-29T10:38:02.962Z,25.87
2022-07-29T10:41:19.673Z,26.02
2022-07-29T10:43:55.223Z,26.06
2022-07-29T10:46:31.851Z,26.11
2022-07-29T10:49:24.775Z,26.14
2022-07-29T10:52:26.625Z,26.22
2022-07-29T10:55:55.714Z,26.29
2022-07-29T10:58:28.599Z,26.37
2022-07-29T11:01:39.239Z,26.46
2022-07-29T11:04:23.187Z,26.52
2022-07-29T11:07:18.847Z,26.48
2022-07-29T11:10:35.778Z,26.43
2022-07-29T11:13:57.086Z,26.33
2022-07-29T11:16:28.227Z,26.26
2022-07-29T11:19:29.780Z,26.25
2022-07-29T11:22:16.561Z,26.23
2022-07-29T11:25:42.527Z,26.14
2022-07-29T11:28:33.669Z,26.07
2022-07-29T11:31:07.903Z,26.04
2022-07-29T11:33:55.746Z,26.01
2022-07-29T11:36:37.655Z,26.05
2022-07-29T11:39:36.671Z,26.12
2022-07-29T11:42:28.226Z,26.17
2022-07-29T11:45:42.497Z,26.24
2022-07-29T11:48:29.126Z,26.26
2022-07-29T11:51:01.394Z,26.27
2022-07-29T11:53:33.426Z,26.30
2022-07-29T11:56:07.332Z,26.27
2022-07-29T11:58:38.522Z,26.24
2022-07-29T12:01:22.473Z,26.24
2022-07-29T12:04:08.247Z,26.20
2022-07-29T12:07:00.615Z,26.21
2022-07-29T12:09:40.254Z,26.18
2022-07-29T12:12:21.723Z,26.12
2022-07-29T12:14:56.293Z,26.06
2022-07-29T12:17:34.009Z,26.03
2022-07-29T12:20:07.644Z,26.09
2022-07-29T12:22:45.474Z,26.17
2022-07-29T12:25:32.326Z,26.24
2022-07-29T12:28:14.069Z,26.20
2022-07-29T12:30:51.720Z,26.17
2022-07-29T12:33:27.608Z,26.16
2022-07-29T12:36:12.844Z,26.15
2022-07-29T12:38:47.506Z,26.10
2022-07-29T12:41:21.694Z,26.09
2022-07-29T12:43:55.690Z,26.07
2022-07-29T12:46:24.679Z,26.02
2022-07-29T12:48:56.077Z,25.94
2022-07-29T12:51:40.818Z,25.88
2022-07-29T12:54:14.621Z,25.86
2022-07-29T12:56:46.113Z,25.87
2022-07-29T12:59:23.128Z,25.90
2022-07-29T13:01:53.647Z,25.93
2022-07-29T13:04:32.581Z,25.93
2022-07-29T13:07:10.314Z,25.94
2022-07-29T13:09:44.952Z,25.96
2022-07-29T13:12:16.248Z,25.98
2022-07-29T13:14:49.004Z,25.95
2022-07-29T13:17:24.028Z,25.94
2022-07-29T13:20:08.480Z,25.96
2022-07-29T13:22:38.030Z,25.99
2022-07-29T13:25:08.099Z,26.07
2022-07-29T13:27:39.922Z,26.15
2022-07-29T13:30:10.861Z,26.17
2022-07-29T13:32:40.433Z,26.18
2022-07-29T13:35:10.049Z,26.11
2022-07-29T13:37:41.598Z,26.05
2022-07-29T13:40:12.592Z,26.03
2022-07-29T13:42:42.150Z,26.06
2022-07-29T13:45:12.059Z,26.08
2022-07-29T13:47:47.667Z,26.08
2022-07-29T13:50:18.620Z,26.08
2022-07-29T13:52:49.487Z,26.10
2022-07-29T13:55:18.435Z,26.15
2022-07-29T13:57:47.327Z,26.13
2022-07-29T14:00:17.238Z,26.11
2022-07-29T14:02:46.219Z,26.10
2022-07-29T14:05:15.148Z,26.10
2022-07-29T14:07:44.104Z,26.11
2022-07-29T14:10:15.194Z,26.14
2022-07-29T14:12:47.479Z,26.18
2022-07-29T14:15:16.532Z,26.21
2022-07-29T14:17:45.695Z,26.20
2022-07-29T14:20:17.203Z,26.20
2022-07-29T14:22:46.288Z,26.22
2022-07-29T14:25:15.783Z,26.24
2022-07-29T14:27:44.904Z,26.26
2022-07-29T14:30:14.357Z,26.24
2022-07-29T14:32:43.299Z,26.19
2022-07-29T14:35:12.695Z,26.20
2022-07-29T14:37:42.542Z,26.23
2022-07-29T14:40:12.355Z,26.27
2022-07-29T14:42:41.327Z,26.30
2022-07-29T14:45:11.547Z,26.31
2022-07-29T14:47:40.606Z,26.34
2022-07-29T14:50:10.381Z,26.35
2022-07-29T14:52:39.690Z,26.38
2022-07-29T14:55:16.287Z,26.37
2022-07-29T14:57:45.969Z,26.34
2022-07-29T15:00:15.609Z,26.32
2022-07-29T15:03:00.895Z,26.31
2022-07-29T15:05:32.225Z,26.30
2022-07-29T15:08:01.175Z,26.28
2022-07-29T15:10:30.243Z,26.21
2022-07-29T15:12:59.205Z,26.20
2022-07-29T15:15:29.007Z,26.20
2022-07-29T15:17:58.033Z,26.19
2022-07-29T15:20:28.260Z,26.21
2022-07-29T15:22:57.987Z,26.23
2022-07-29T15:25:28.219Z,26.25
2022-07-29T15:28:01.121Z,26.23
2022-07-29T15:30:33.552Z,26.24
2022-07-29T15:33:04.619Z,26.28
2022-07-29T15:35:40.399Z,26.29
2022-07-29T15:38:10.082Z,26.26
2022-07-29T15:40:44.102Z,26.24
2022-07-29T15:43:13.606Z,26.23
2022-07-29T15:46:02.803Z,26.21
2022-07-29T15:48:32.793Z,26.20
2022-07-29T15:51:02.234Z,26.17
2022-07-29T15:53:31.735Z,26.14
2022-07-29T15:56:02.598Z,26.12
2022-07-29T15:58:31.908Z,26.08
2022-07-29T16:01:01.472Z,26.03
2022-07-29T16:03:30.840Z,25.96
2022-07-29T16:06:00.201Z,25.91
2022-07-29T16:08:29.644Z,25.89
2022-07-29T16:10:58.845Z,25.85
2022-07-29T16:13:28.519Z,25.83
2022-07-29T16:16:02.486Z,25.81
2022-07-29T16:18:32.955Z,25.69
2022-07-29T16:21:02.457Z,25.66
2022-07-29T16:23:32.467Z,25.65
2022-07-29T16:26:01.832Z,25.63
2022-07-29T16:28:34.995Z,25.63
2022-07-29T16:31:04.385Z,25.63
2022-07-29T16:33:54.264Z,25.61
2022-07-29T16:36:23.557Z,25.61
2022-07-29T16:38:53.065Z,25.64
2022-07-29T16:41:22.256Z,25.66
2022-07-29T16:43:51.576Z,25.69
2022-07-29T16:46:21.913Z,25.71
2022-07-29T16:48:54.005Z,25.69
2022-07-29T16:51:23.450Z,25.71
2022-07-29T16:53:52.941Z,25.75
2022-07-29T16:56:22.346Z,25.77
2022-07-29T16:58:51.851Z,25.74
2022-07-29T17:01:21.445Z,25.74
2022-07-29T17:04:09.391Z,25.75
2022-07-29T17:06:40.978Z,25.73
2022-07-29T17:09:15.053Z,25.71
2022-07-29T17:11:51.790Z,25.69
2022-07-29T17:14:25.660Z,25.66
2022-07-29T17:17:01.208Z,25.62
2022-07-29T17:19:35.776Z,25.57
2022-07-29T17:22:15.635Z,25.53
2022-07-29T17:24:50.545Z,25.48
2022-07-29T17:27:20.097Z,25.44
2022-07-29T17:29:49.016Z,25.39
2022-07-29T17:32:17.945Z,25.38
2022-07-29T17:34:47.395Z,25.38
2022-07-29T17:37:16.788Z,25.31
2022-07-29T17:39:45.909Z,25.23
2022-07-29T17:42:15.148Z,25.16
2022-07-29T17:44:46.798Z,25.11
2022-07-29T17:47:16.680Z,25.08
2022-07-29T17:49:46.486Z,25.01
2022-07-29T17:52:18.120Z,24.93
2022-07-29T17:54:49.413Z,24.86
2022-07-29T17:57:21.603Z,24.82
2022-07-29T17:59:50.646Z,24.79
2022-07-29T18:02:20.756Z,24.77
2022-07-29T18:04:50.967Z,24.75
2022-07-29T18:07:20.025Z,24.70
2022-07-29T18:09:49.039Z,24.66
2022-07-29T18:12:18.679Z,24.61
2022-07-29T18:14:48.297Z,24.57
2022-07-29T18:17:17.769Z,24.55
2022-07-29T18:19:46.778Z,24.52
2022-07-29T18:22:15.924Z,24.47
2022-07-29T18:24:45.165Z,24.42
2022-07-29T18:27:14.094Z,24.37
2022-07-29T18:29:43.035Z,24.33
2022-07-29T18:32:11.988Z,24.31
2022-07-29T18:34:42.105Z,24.28
2022-07-29T18:37:11.165Z,24.23
2022-07-29T18:39:40.702Z,24.18
2022-07-29T18:42:12.684Z,24.11
2022-07-29T18:44:43.740Z,24.02
2022-07-29T18:47:18.852Z,23.92
2022-07-29T18:49:49.930Z,23.85
2022-07-29T18:52:19.140Z,23.79
2022-07-29T18:54:48.033Z,23.72
2022-07-29T18:57:54.256Z,23.65
2022-07-29T19:00:08.626Z,23.57
2022-07-29T19:02:38.884Z,23.50
2022-07-29T19:05:12.779Z,23.37
2022-07-29T19:07:50.664Z,23.31
2022-07-29T19:10:22.324Z,23.27
2022-07-29T19:12:52.593Z,23.22
2022-07-29T19:15:21.600Z,23.18
2022-07-29T19:17:50.628Z,23.14
2022-07-29T19:20:19.701Z,23.09
2022-07-29T19:22:48.705Z,23.04
2022-07-29T19:25:19.768Z,22.98
2022-07-29T19:27:48.609Z,22.92
2022-07-29T19:30:17.432Z,22.88
2022-07-29T19:32:46.589Z,22.85
2022-07-29T19:35:24.346Z,22.82
2022-07-29T19:37:55.473Z,22.78
2022-07-29T19:40:26.214Z,22.74
2022-07-29T19:43:01.082Z,22.71
2022-07-29T19:45:30.684Z,22.67
2022-07-29T19:48:01.740Z,22.65
2022-07-29T19:50:31.313Z,22.62
2022-07-29T19:53:01.087Z,22.52
2022-07-29T19:55:30.130Z,22.48
2022-07-29T19:57:59.482Z,22.47
2022-07-29T20:00:29.545Z,22.47
2022-07-29T20:02:59.042Z,22.45
2022-07-29T20:05:28.534Z,22.42
2022-07-29T20:07:57.548Z,22.38
2022-07-29T20:10:26.849Z,22.36
2022-07-29T20:12:56.220Z,22.34
2022-07-29T20:15:25.300Z,22.31
2022-07-29T20:17:57.358Z,22.27
2022-07-29T20:20:27.283Z,22.24
2022-07-29T20:22:57.178Z,22.21
2022-07-29T20:25:27.195Z,22.19
2022-07-29T20:27:58.177Z,22.18
2022-07-29T20:30:27.079Z,22.17
2022-07-29T20:32:56.594Z,22.13
2022-07-29T20:35:25.811Z,22.12
2022-07-29T20:37:56.623Z,22.09
2022-07-29T20:40:27.007Z,22.06
2022-07-29T20:42:58.080Z,22.03
2022-07-29T20:45:30.698Z,22.02
2022-07-29T20:47:59.550Z,22.01
2022-07-29T20:50:28.863Z,21.99
2022-07-29T20:52:57.867Z,21.97
2022-07-29T20:55:28.182Z,21.97
2022-07-29T20:57:57.076Z,21.96
2022-07-29T21:00:26.130Z,21.96
2022-07-29T21:02:55.731Z,21.95
2022-07-29T21:05:24.956Z,21.96
2022-07-29T21:07:57.858Z,21.96
2022-07-29T21:10:28.208Z,21.95
2022-07-29T21:12:57.012Z,21.94
2022-07-29T21:15:27.722Z,21.93
2022-07-29T21:18:02.529Z,21.92
2022-07-29T21:20:31.888Z,21.91
2022-07-29T21:23:00.865Z,21.90
2022-07-29T21:25:30.186Z,21.89
2022-07-29T21:28:17.495Z,21.88
2022-07-29T21:30:46.296Z,21.85
2022-07-29T21:33:15.204Z,21.85
2022-07-29T21:36:06.395Z,21.82
2022-07-29T21:38:36.925Z,21.78
2022-07-29T21:41:07.205Z,21.76
2022-07-29T21:43:41.787Z,21.75
2022-07-29T21:46:11.066Z,21.75
2022-07-29T21:48:44.309Z,21.75
2022-07-29T21:51:13.892Z,21.76
2022-07-29T21:53:45.746Z,21.76
2022-07-29T21:56:15.271Z,21.77
2022-07-29T21:58:46.948Z,21.77
2022-07-29T22:01:15.946Z,21.75
2022-07-29T22:03:44.822Z,21.74
2022-07-29T22:06:18.264Z,21.75
2022-07-29T22:08:48.129Z,21.74
2022-07-29T22:11:17.030Z,21.74
2022-07-29T22:13:49.183Z,21.73
2022-07-29T22:16:18.383Z,21.74
2022-07-29T22:18:49.528Z,21.73
2022-07-29T22:21:18.546Z,21.72
2022-07-29T22:23:47.626Z,21.71
2022-07-29T22:26:17.205Z,21.71
2022-07-29T22:28:46.394Z,21.71
2022-07-29T22:31:15.471Z,21.69
2022-07-29T22:33:44.383Z,21.68
2022-07-29T22:36:36.235Z,21.66
2022-07-29T22:39:11.042Z,21.62
2022-07-29T22:41:44.465Z,21.61
2022-07-29T22:44:13.328Z,21.60
2022-07-29T22:46:42.655Z,21.58
2022-07-29T22:49:14.531Z,21.57
2022-07-29T22:51:43.583Z,21.57
2022-07-29T22:54:12.947Z,21.56
2022-07-29T22:56:41.960Z,21.55
2022-07-29T22:59:11.009Z,21.55
2022-07-29T23:01:40.112Z,21.53
2022-07-29T23:04:09.219Z,21.49
2022-07-29T23:06:38.798Z,21.46
2022-07-29T23:09:07.884Z,21.45
2022-07-29T23:11:37.061Z,21.43
2022-07-29T23:14:06.260Z,21.40
2022-07-29T23:16:38.736Z,21.40
2022-07-29T23:19:07.937Z,21.39
2022-07-29T23:21:36.946Z,21.38
2022-07-29T23:24:07.361Z,21.37
2022-07-29T23:26:37.011Z,21.35
2022-07-29T23:29:05.924Z,21.33
2022-07-29T23:31:36.159Z,21.30
2022-07-29T23:34:10.891Z,21.26
2022-07-29T23:36:39.895Z,21.24
2022-07-29T23:39:13.427Z,21.22
2022-07-29T23:41:43.194Z,21.19
2022-07-29T23:44:12.174Z,21.16
2022-07-29T23:46:41.160Z,21.13
2022-07-29T23:49:10.366Z,21.10
2022-07-29T23:51:42.172Z,21.08
2022-07-29T23:54:11.329Z,21.04
2022-07-29T23:56:40.187Z,21.02
2022-07-29T23:59:09.114Z,21.00
